sensor_id;sensor_type;location;lat;lon;timestamp;pressure;altitude;pressure_sealevel;temperature;humidity
57562;BME280;43397;51.530;5.974;2023-02-01T00:02:06;101628.25;;;10.33;76.28
57562;BME280;43397;51.530;5.974;2023-02-01T00:04:32;101629.13;;;10.30;76.97
57562;BME280;43397;51.530;5.974;2023-02-01T00:06:58;101615.72;;;10.21;77.21
57562;BME280;43397;51.530;5.974;2023-02-01T00:09:23;101614.00;;;10.26;76.98
57562;BME280;43397;51.530;5.974;2023-02-01T00:11:49;101617.50;;;10.20;76.93
57562;BME280;43397;51.530;5.974;2023-02-01T00:14:16;101609.44;;;10.05;76.32
57562;BME280;43397;51.530;5.974;2023-02-01T00:16:42;101623.63;;;10.07;76.60
57562;BME280;43397;51.530;5.974;2023-02-01T00:19:10;101616.59;;;10.17;76.02
57562;BME280;43397;51.530;5.974;2023-02-01T00:21:37;101610.53;;;10.35;74.91
57562;BME280;43397;51.530;5.974;2023-02-01T00:24:03;101603.34;;;10.23;74.90
57562;BME280;43397;51.530;5.974;2023-02-01T00:26:31;101592.78;;;10.32;74.32
57562;BME280;43397;51.530;5.974;2023-02-01T00:28:57;101575.06;;;10.28;74.04
57562;BME280;43397;51.530;5.974;2023-02-01T00:31:24;101562.59;;;10.25;74.50
57562;BME280;43397;51.530;5.974;2023-02-01T00:33:50;101556.44;;;10.26;74.26
57562;BME280;43397;51.530;5.974;2023-02-01T00:36:16;101550.13;;;10.00;75.08
57562;BME280;43397;51.530;5.974;2023-02-01T00:38:42;101564.53;;;10.60;73.15
57562;BME280;43397;51.530;5.974;2023-02-01T00:41:11;101568.06;;;10.44;73.21
57562;BME280;43397;51.530;5.974;2023-02-01T00:43:37;101563.66;;;10.57;72.89
57562;BME280;43397;51.530;5.974;2023-02-01T00:46:04;101571.47;;;10.20;73.39
57562;BME280;43397;51.530;5.974;2023-02-01T00:48:31;101577.72;;;10.29;73.50
57562;BME280;43397;51.530;5.974;2023-02-01T00:50:59;101577.63;;;10.14;73.47
57562;BME280;43397;51.530;5.974;2023-02-01T00:53:25;101580.28;;;10.11;73.28
57562;BME280;43397;51.530;5.974;2023-02-01T00:55:50;101595.34;;;10.15;73.13
57562;BME280;43397;51.530;5.974;2023-02-01T00:58:16;101578.44;;;10.02;72.86
57562;BME280;43397;51.530;5.974;2023-02-01T01:00:42;101584.56;;;9.91;74.00
57562;BME280;43397;51.530;5.974;2023-02-01T01:03:07;101590.03;;;10.17;72.88
57562;BME280;43397;51.530;5.974;2023-02-01T01:05:34;101591.03;;;10.33;72.26
57562;BME280;43397;51.530;5.974;2023-02-01T01:08:00;101580.22;;;10.02;72.82
57562;BME280;43397;51.530;5.974;2023-02-01T01:10:26;101584.63;;;10.01;72.65
57562;BME280;43397;51.530;5.974;2023-02-01T01:12:51;101592.75;;;10.26;72.39
57562;BME280;43397;51.530;5.974;2023-02-01T01:15:17;101591.84;;;10.19;72.01
57562;BME280;43397;51.530;5.974;2023-02-01T01:17:43;101589.94;;;10.00;72.23
57562;BME280;43397;51.530;5.974;2023-02-01T01:20:10;101588.13;;;9.91;73.06
57562;BME280;43397;51.530;5.974;2023-02-01T01:22:37;101586.34;;;9.92;72.71
57562;BME280;43397;51.530;5.974;2023-02-01T01:25:04;101597.81;;;9.87;72.95
57562;BME280;43397;51.530;5.974;2023-02-01T01:27:30;101600.50;;;9.91;72.60
57562;BME280;43397;51.530;5.974;2023-02-01T01:29:56;101582.00;;;10.04;72.28
57562;BME280;43397;51.530;5.974;2023-02-01T01:32:21;101581.00;;;9.88;72.80
57562;BME280;43397;51.530;5.974;2023-02-01T01:34:47;101575.72;;;9.87;72.25
57562;BME280;43397;51.530;5.974;2023-02-01T01:37:14;101573.75;;;9.64;72.64
57562;BME280;43397;51.530;5.974;2023-02-01T01:39:41;101575.75;;;9.93;71.46
57562;BME280;43397;51.530;5.974;2023-02-01T01:42:10;101583.75;;;10.01;70.72
57562;BME280;43397;51.530;5.974;2023-02-01T01:44:57;101584.63;;;9.95;71.06
57562;BME280;43397;51.530;5.974;2023-02-01T01:47:24;101591.56;;;9.76;71.67
57562;BME280;43397;51.530;5.974;2023-02-01T01:49:51;101583.19;;;9.27;72.82
57562;BME280;43397;51.530;5.974;2023-02-01T01:52:17;101584.97;;;9.23;73.76
57562;BME280;43397;51.530;5.974;2023-02-01T01:54:47;101588.50;;;9.27;73.67
57562;BME280;43397;51.530;5.974;2023-02-01T01:57:17;101590.06;;;9.02;74.23
57562;BME280;43397;51.530;5.974;2023-02-01T01:59:50;101587.00;;;8.65;74.56
57562;BME280;43397;51.530;5.974;2023-02-01T02:02:18;101580.66;;;8.52;75.24
57562;BME280;43397;51.530;5.974;2023-02-01T02:04:44;101584.59;;;8.88;74.21
57562;BME280;43397;51.530;5.974;2023-02-01T02:07:14;101595.34;;;9.02;73.17
57562;BME280;43397;51.530;5.974;2023-02-01T02:09:41;101594.06;;;8.64;74.61
57562;BME280;43397;51.530;5.974;2023-02-01T02:12:08;101589.00;;;8.88;74.10
57562;BME280;43397;51.530;5.974;2023-02-01T02:14:34;101586.72;;;8.42;75.63
57562;BME280;43397;51.530;5.974;2023-02-01T02:17:10;101586.41;;;8.19;76.92
57562;BME280;43397;51.530;5.974;2023-02-01T02:22:58;101573.78;;;8.68;74.53
57562;BME280;43397;51.530;5.974;2023-02-01T02:25:42;101573.81;;;8.73;73.64
57562;BME280;43397;51.530;5.974;2023-02-01T02:28:24;101554.91;;;8.40;75.61
57562;BME280;43397;51.530;5.974;2023-02-01T02:31:08;101562.91;;;8.43;76.02
57562;BME280;43397;51.530;5.974;2023-02-01T02:33:57;101556.72;;;8.44;75.77
57562;BME280;43397;51.530;5.974;2023-02-01T02:36:36;101542.06;;;8.77;74.69
57562;BME280;43397;51.530;5.974;2023-02-01T02:39:07;101548.38;;;8.90;74.80
57562;BME280;43397;51.530;5.974;2023-02-01T02:41:45;101544.28;;;9.21;74.12
57562;BME280;43397;51.530;5.974;2023-02-01T02:44:19;101551.25;;;9.13;75.05
57562;BME280;43397;51.530;5.974;2023-02-01T02:46:49;101552.94;;;9.05;75.33
57562;BME280;43397;51.530;5.974;2023-02-01T02:49:20;101543.38;;;9.19;74.79
57562;BME280;43397;51.530;5.974;2023-02-01T02:51:50;101544.84;;;8.90;76.29
57562;BME280;43397;51.530;5.974;2023-02-01T02:54:21;101545.75;;;8.89;75.77
57562;BME280;43397;51.530;5.974;2023-02-01T02:56:49;101543.63;;;8.57;77.96
57562;BME280;43397;51.530;5.974;2023-02-01T02:59:21;101538.97;;;9.24;76.10
57562;BME280;43397;51.530;5.974;2023-02-01T03:01:48;101540.66;;;9.13;76.75
57562;BME280;43397;51.530;5.974;2023-02-01T03:04:14;101540.91;;;9.47;76.08
57562;BME280;43397;51.530;5.974;2023-02-01T03:06:41;101539.13;;;9.43;75.86
57562;BME280;43397;51.530;5.974;2023-02-01T03:09:13;101531.03;;;9.27;76.12
57562;BME280;43397;51.530;5.974;2023-02-01T03:11:40;101534.69;;;9.42;75.89
57562;BME280;43397;51.530;5.974;2023-02-01T03:14:10;101519.66;;;9.39;76.55
57562;BME280;43397;51.530;5.974;2023-02-01T03:16:42;101519.59;;;9.36;76.28
57562;BME280;43397;51.530;5.974;2023-02-01T03:19:14;101516.94;;;9.30;76.20
57562;BME280;43397;51.530;5.974;2023-02-01T03:21:45;101513.28;;;9.17;77.13
57562;BME280;43397;51.530;5.974;2023-02-01T03:24:14;101519.63;;;9.35;76.38
57562;BME280;43397;51.530;5.974;2023-02-01T03:26:48;101505.50;;;9.45;76.69
57562;BME280;43397;51.530;5.974;2023-02-01T03:29:19;101508.31;;;9.68;76.43
57562;BME280;43397;51.530;5.974;2023-02-01T03:31:48;101515.44;;;9.69;75.54
57562;BME280;43397;51.530;5.974;2023-02-01T03:34:13;101508.44;;;9.93;74.85
57562;BME280;43397;51.530;5.974;2023-02-01T03:36:42;101503.91;;;9.68;76.12
57562;BME280;43397;51.530;5.974;2023-02-01T03:39:15;101502.38;;;10.15;74.73
57562;BME280;43397;51.530;5.974;2023-02-01T03:41:48;101510.34;;;10.23;74.55
57562;BME280;43397;51.530;5.974;2023-02-01T03:44:19;101494.25;;;9.83;75.15
57562;BME280;43397;51.530;5.974;2023-02-01T03:46:49;101508.44;;;9.86;75.61
57562;BME280;43397;51.530;5.974;2023-02-01T03:49:20;101496.03;;;9.88;76.38
57562;BME280;43397;51.530;5.974;2023-02-01T03:51:49;101502.19;;;9.78;75.71
57562;BME280;43397;51.530;5.974;2023-02-01T03:54:18;101489.03;;;9.98;74.92
57562;BME280;43397;51.530;5.974;2023-02-01T03:56:46;101481.75;;;9.62;76.20
57562;BME280;43397;51.530;5.974;2023-02-01T03:59:14;101481.75;;;9.63;75.98
57562;BME280;43397;51.530;5.974;2023-02-01T04:01:41;101483.53;;;9.63;75.63
57562;BME280;43397;51.530;5.974;2023-02-01T04:04:07;101494.13;;;9.58;75.76
57562;BME280;43397;51.530;5.974;2023-02-01T04:06:32;101490.63;;;9.67;75.78
57562;BME280;43397;51.530;5.974;2023-02-01T04:08:58;101490.47;;;9.42;76.10
57562;BME280;43397;51.530;5.974;2023-02-01T04:11:25;101492.16;;;9.31;76.53
57562;BME280;43397;51.530;5.974;2023-02-01T04:13:51;101497.63;;;9.54;75.64
57562;BME280;43397;51.530;5.974;2023-02-01T04:16:17;101507.38;;;9.60;75.60
57562;BME280;43397;51.530;5.974;2023-02-01T04:18:42;101506.25;;;9.24;76.19
57562;BME280;43397;51.530;5.974;2023-02-01T04:21:08;101505.44;;;9.33;76.40
57562;BME280;43397;51.530;5.974;2023-02-01T04:23:34;101494.75;;;9.25;76.93
57562;BME280;43397;51.530;5.974;2023-02-01T04:26:00;101493.75;;;9.09;77.21
57562;BME280;43397;51.530;5.974;2023-02-01T04:28:28;101496.31;;;8.98;77.69
57562;BME280;43397;51.530;5.974;2023-02-01T04:30:54;101502.75;;;9.28;76.40
57562;BME280;43397;51.530;5.974;2023-02-01T04:33:20;101508.88;;;9.18;77.07
57562;BME280;43397;51.530;5.974;2023-02-01T04:35:47;101508.28;;;9.59;75.15
57562;BME280;43397;51.530;5.974;2023-02-01T04:38:12;101519.59;;;9.36;75.99
57562;BME280;43397;51.530;5.974;2023-02-01T04:40:38;101514.44;;;9.55;75.16
57562;BME280;43397;51.530;5.974;2023-02-01T04:43:04;101519.69;;;9.47;74.85
57562;BME280;43397;51.530;5.974;2023-02-01T04:45:31;101513.28;;;9.20;75.90
57562;BME280;43397;51.530;5.974;2023-02-01T04:47:56;101514.44;;;9.52;75.25
57562;BME280;43397;51.530;5.974;2023-02-01T04:50:22;101513.56;;;9.54;74.56
57562;BME280;43397;51.530;5.974;2023-02-01T04:52:48;101511.97;;;8.69;77.97
57562;BME280;43397;51.530;5.974;2023-02-01T04:55:13;101520.78;;;8.68;79.21
57562;BME280;43397;51.530;5.974;2023-02-01T04:57:39;101527.81;;;8.63;79.18
57562;BME280;43397;51.530;5.974;2023-02-01T05:00:06;101514.66;;;8.74;79.15
57562;BME280;43397;51.530;5.974;2023-02-01T05:02:33;101522.69;;;8.80;78.55
57562;BME280;43397;51.530;5.974;2023-02-01T05:04:59;101523.38;;;8.60;78.91
57562;BME280;43397;51.530;5.974;2023-02-01T05:07:25;101520.84;;;8.74;79.03
57562;BME280;43397;51.530;5.974;2023-02-01T05:09:50;101515.63;;;8.82;78.67
57562;BME280;43397;51.530;5.974;2023-02-01T05:12:16;101508.47;;;8.75;79.09
57562;BME280;43397;51.530;5.974;2023-02-01T05:14:42;101516.59;;;8.12;81.24
57562;BME280;43397;51.530;5.974;2023-02-01T05:17:07;101513.97;;;8.12;82.39
57562;BME280;43397;51.530;5.974;2023-02-01T05:19:34;101512.66;;;8.53;79.63
57562;BME280;43397;51.530;5.974;2023-02-01T05:22:00;101518.00;;;8.54;80.59
57562;BME280;43397;51.530;5.974;2023-02-01T05:24:26;101517.34;;;8.78;79.44
57562;BME280;43397;51.530;5.974;2023-02-01T05:26:51;101517.16;;;8.60;80.60
57562;BME280;43397;51.530;5.974;2023-02-01T05:29:18;101517.47;;;8.92;80.07
57562;BME280;43397;51.530;5.974;2023-02-01T05:31:45;101516.44;;;8.76;80.45
57562;BME280;43397;51.530;5.974;2023-02-01T05:34:11;101510.06;;;8.54;82.41
57562;BME280;43397;51.530;5.974;2023-02-01T05:36:38;101507.81;;;8.96;81.35
57562;BME280;43397;51.530;5.974;2023-02-01T05:39:04;101498.91;;;8.89;81.56
57562;BME280;43397;51.530;5.974;2023-02-01T05:41:29;101496.19;;;8.80;82.25
57562;BME280;43397;51.530;5.974;2023-02-01T05:43:55;101503.44;;;9.05;81.15
57562;BME280;43397;51.530;5.974;2023-02-01T05:46:21;101507.03;;;9.09;81.19
57562;BME280;43397;51.530;5.974;2023-02-01T05:48:47;101501.41;;;8.74;82.28
57562;BME280;43397;51.530;5.974;2023-02-01T05:51:12;101501.00;;;9.30;80.34
57562;BME280;43397;51.530;5.974;2023-02-01T05:53:40;101495.50;;;9.05;81.41
57562;BME280;43397;51.530;5.974;2023-02-01T05:56:06;101503.81;;;9.52;80.01
57562;BME280;43397;51.530;5.974;2023-02-01T05:58:32;101509.84;;;9.34;80.14
57562;BME280;43397;51.530;5.974;2023-02-01T06:00:58;101503.84;;;9.62;79.47
57562;BME280;43397;51.530;5.974;2023-02-01T06:03:24;101500.34;;;9.60;79.60
57562;BME280;43397;51.530;5.974;2023-02-01T06:05:50;101503.84;;;9.56;78.86
57562;BME280;43397;51.530;5.974;2023-02-01T06:08:16;101502.91;;;9.50;79.42
57562;BME280;43397;51.530;5.974;2023-02-01T06:10:43;101506.50;;;9.62;78.91
57562;BME280;43397;51.530;5.974;2023-02-01T06:13:09;101513.72;;;9.80;78.02
57562;BME280;43397;51.530;5.974;2023-02-01T06:15:35;101510.06;;;9.58;78.75
57562;BME280;43397;51.530;5.974;2023-02-01T06:18:01;101513.78;;;9.97;76.90
57562;BME280;43397;51.530;5.974;2023-02-01T06:20:27;101516.47;;;10.03;76.59
57562;BME280;43397;51.530;5.974;2023-02-01T06:22:52;101522.34;;;9.48;78.88
57562;BME280;43397;51.530;5.974;2023-02-01T06:25:18;101509.13;;;9.58;77.73
57562;BME280;43397;51.530;5.974;2023-02-01T06:27:45;101501.44;;;10.10;75.85
57562;BME280;43397;51.530;5.974;2023-02-01T06:30:11;101499.47;;;9.66;77.23
57562;BME280;43397;51.530;5.974;2023-02-01T06:32:37;101502.25;;;9.92;76.62
57562;BME280;43397;51.530;5.974;2023-02-01T06:35:03;101501.06;;;9.42;78.76
57562;BME280;43397;51.530;5.974;2023-02-01T06:37:29;101507.31;;;9.43;78.85
57562;BME280;43397;51.530;5.974;2023-02-01T06:39:55;101504.56;;;9.35;79.25
57562;BME280;43397;51.530;5.974;2023-02-01T06:42:21;101503.69;;;9.35;80.08
57562;BME280;43397;51.530;5.974;2023-02-01T06:44:48;101510.44;;;8.96;81.07
57562;BME280;43397;51.530;5.974;2023-02-01T06:47:13;101520.41;;;9.27;80.29
57562;BME280;43397;51.530;5.974;2023-02-01T06:49:39;101522.44;;;9.64;79.37
57562;BME280;43397;51.530;5.974;2023-02-01T06:52:05;101525.97;;;9.60;79.84
57562;BME280;43397;51.530;5.974;2023-02-01T06:54:30;101526.06;;;9.77;79.33
57562;BME280;43397;51.530;5.974;2023-02-01T06:56:57;101534.09;;;9.86;78.87
57562;BME280;43397;51.530;5.974;2023-02-01T06:59:23;101529.69;;;9.86;78.59
57562;BME280;43397;51.530;5.974;2023-02-01T07:01:50;101526.72;;;9.39;80.98
57562;BME280;43397;51.530;5.974;2023-02-01T07:04:16;101529.41;;;9.43;81.32
57562;BME280;43397;51.530;5.974;2023-02-01T07:06:41;101530.34;;;9.53;81.47
57562;BME280;43397;51.530;5.974;2023-02-01T07:09:08;101531.28;;;9.61;80.60
57562;BME280;43397;51.530;5.974;2023-02-01T07:11:33;101525.97;;;9.60;81.13
57562;BME280;43397;51.530;5.974;2023-02-01T07:13:59;101521.56;;;9.66;80.12
57562;BME280;43397;51.530;5.974;2023-02-01T07:16:25;101527.69;;;9.50;81.01
57562;BME280;43397;51.530;5.974;2023-02-01T07:18:52;101526.03;;;9.69;80.51
57562;BME280;43397;51.530;5.974;2023-02-01T07:21:18;101526.91;;;9.71;79.89
57562;BME280;43397;51.530;5.974;2023-02-01T07:23:44;101526.16;;;9.91;79.28
57562;BME280;43397;51.530;5.974;2023-02-01T07:26:12;101521.72;;;9.86;79.57
57562;BME280;43397;51.530;5.974;2023-02-01T07:28:39;101522.38;;;9.53;80.46
57562;BME280;43397;51.530;5.974;2023-02-01T07:31:06;101528.56;;;9.47;81.51
57562;BME280;43397;51.530;5.974;2023-02-01T07:33:32;101533.06;;;9.62;80.85
57562;BME280;43397;51.530;5.974;2023-02-01T07:36:00;101536.72;;;9.78;79.90
57562;BME280;43397;51.530;5.974;2023-02-01T07:38:26;101539.38;;;9.78;79.89
57562;BME280;43397;51.530;5.974;2023-02-01T07:40:56;101541.06;;;9.68;80.20
57562;BME280;43397;51.530;5.974;2023-02-01T07:43:22;101531.44;;;9.83;79.43
57562;BME280;43397;51.530;5.974;2023-02-01T07:45:51;101534.97;;;9.88;78.92
57562;BME280;43397;51.530;5.974;2023-02-01T07:48:16;101531.44;;;9.83;79.09
57562;BME280;43397;51.530;5.974;2023-02-01T07:50:42;101533.22;;;9.85;78.76
57562;BME280;43397;51.530;5.974;2023-02-01T07:53:09;101530.41;;;9.61;79.83
57562;BME280;43397;51.530;5.974;2023-02-01T07:55:37;101531.13;;;9.37;80.17
57562;BME280;43397;51.530;5.974;2023-02-01T07:58:03;101527.78;;;9.65;79.58
57562;BME280;43397;51.530;5.974;2023-02-01T08:00:28;101521.66;;;9.77;79.00
57562;BME280;43397;51.530;5.974;2023-02-01T08:02:54;101539.19;;;9.52;80.06
57562;BME280;43397;51.530;5.974;2023-02-01T08:05:20;101534.03;;;9.75;79.45
57562;BME280;43397;51.530;5.974;2023-02-01T08:07:48;101525.31;;;10.01;78.58
57562;BME280;43397;51.530;5.974;2023-02-01T08:10:16;101534.00;;;9.72;79.44
57562;BME280;43397;51.530;5.974;2023-02-01T08:12:42;101541.97;;;9.69;79.67
57562;BME280;43397;51.530;5.974;2023-02-01T08:15:08;101539.31;;;9.75;79.29
57562;BME280;43397;51.530;5.974;2023-02-01T08:17:33;101534.25;;;10.20;78.11
57562;BME280;43397;51.530;5.974;2023-02-01T08:19:59;101538.63;;;10.05;78.43
57562;BME280;43397;51.530;5.974;2023-02-01T08:22:25;101547.47;;;10.06;78.00
57562;BME280;43397;51.530;5.974;2023-02-01T08:24:50;101552.72;;;9.97;78.33
57562;BME280;43397;51.530;5.974;2023-02-01T08:27:17;101558.19;;;10.21;77.60
57562;BME280;43397;51.530;5.974;2023-02-01T08:29:43;101553.63;;;9.94;78.41
57562;BME280;43397;51.530;5.974;2023-02-01T08:32:09;101558.94;;;9.97;78.63
57562;BME280;43397;51.530;5.974;2023-02-01T08:34:34;101560.03;;;10.32;77.57
57562;BME280;43397;51.530;5.974;2023-02-01T08:37:00;101568.88;;;10.31;78.21
57562;BME280;43397;51.530;5.974;2023-02-01T08:39:26;101565.41;;;10.45;77.80
57562;BME280;43397;51.530;5.974;2023-02-01T08:41:52;101555.53;;;10.27;78.62
57562;BME280;43397;51.530;5.974;2023-02-01T08:44:19;101560.16;;;10.75;77.40
57562;BME280;43397;51.530;5.974;2023-02-01T08:46:45;101561.97;;;10.85;76.52
57562;BME280;43397;51.530;5.974;2023-02-01T08:49:10;101568.16;;;10.76;77.26
57562;BME280;43397;51.530;5.974;2023-02-01T08:51:36;101562.78;;;10.62;76.65
57562;BME280;43397;51.530;5.974;2023-02-01T08:54:02;101561.09;;;10.84;76.87
57562;BME280;43397;51.530;5.974;2023-02-01T08:56:28;101559.25;;;10.68;77.07
57562;BME280;43397;51.530;5.974;2023-02-01T08:58:53;101549.53;;;10.67;76.99
57562;BME280;43397;51.530;5.974;2023-02-01T09:01:20;101551.34;;;10.93;77.02
57562;BME280;43397;51.530;5.974;2023-02-01T09:03:46;101546.00;;;10.88;76.47
57562;BME280;43397;51.530;5.974;2023-02-01T09:06:13;101538.00;;;10.68;77.08
57562;BME280;43397;51.530;5.974;2023-02-01T09:08:42;101546.94;;;10.93;75.85
57562;BME280;43397;51.530;5.974;2023-02-01T09:11:11;101536.28;;;11.11;76.00
57562;BME280;43397;51.530;5.974;2023-02-01T09:13:37;101544.25;;;11.47;74.96
57562;BME280;43397;51.530;5.974;2023-02-01T09:16:04;101546.00;;;11.77;74.50
57562;BME280;43397;51.530;5.974;2023-02-01T09:18:31;101536.22;;;12.02;73.48
57562;BME280;43397;51.530;5.974;2023-02-01T09:20:56;101542.31;;;12.27;72.55
57562;BME280;43397;51.530;5.974;2023-02-01T09:23:22;101538.78;;;12.21;72.37
57562;BME280;43397;51.530;5.974;2023-02-01T09:25:48;101524.56;;;12.23;71.99
57562;BME280;43397;51.530;5.974;2023-02-01T09:28:13;101546.75;;;12.25;71.43
57562;BME280;43397;51.530;5.974;2023-02-01T09:30:39;101537.13;;;11.70;73.78
57562;BME280;43397;51.530;5.974;2023-02-01T09:33:05;101529.16;;;11.66;74.23
57562;BME280;43397;51.530;5.974;2023-02-01T09:35:32;101529.13;;;11.70;73.86
57562;BME280;43397;51.530;5.974;2023-02-01T09:37:57;101520.22;;;11.99;72.85
57562;BME280;43397;51.530;5.974;2023-02-01T09:40:23;101518.31;;;12.32;72.26
57562;BME280;43397;51.530;5.974;2023-02-01T09:42:59;101511.34;;;11.94;73.53
57562;BME280;43397;51.530;5.974;2023-02-01T09:45:31;101519.34;;;11.83;72.83
57562;BME280;43397;51.530;5.974;2023-02-01T09:48:02;101535.28;;;12.08;73.99
57562;BME280;43397;51.530;5.974;2023-02-01T09:50:35;101535.19;;;12.28;72.16
57562;BME280;43397;51.530;5.974;2023-02-01T09:53:03;101522.72;;;12.34;72.07
57562;BME280;43397;51.530;5.974;2023-02-01T09:55:36;101519.09;;;12.51;70.99
57562;BME280;43397;51.530;5.974;2023-02-01T09:58:06;101535.16;;;12.40;70.52
57562;BME280;43397;51.530;5.974;2023-02-01T10:00:36;101531.56;;;12.47;71.93
57562;BME280;43397;51.530;5.974;2023-02-01T10:03:03;101520.97;;;12.32;70.48
57562;BME280;43397;51.530;5.974;2023-02-01T10:08:35;101512.19;;;12.11;71.51
57562;BME280;43397;51.530;5.974;2023-02-01T10:11:13;101527.22;;;12.25;70.57
57562;BME280;43397;51.530;5.974;2023-02-01T10:13:54;101510.41;;;12.07;71.50
57562;BME280;43397;51.530;5.974;2023-02-01T10:16:30;101521.03;;;12.18;70.75
57562;BME280;43397;51.530;5.974;2023-02-01T10:19:12;101529.84;;;12.34;70.17
57562;BME280;43397;51.530;5.974;2023-02-01T10:21:51;101535.94;;;12.58;69.64
57562;BME280;43397;51.530;5.974;2023-02-01T10:24:36;101536.94;;;12.40;69.43
57562;BME280;43397;51.530;5.974;2023-02-01T10:27:12;101537.78;;;12.46;70.31
57562;BME280;43397;51.530;5.974;2023-02-01T10:29:40;101538.66;;;12.45;69.12
57562;BME280;43397;51.530;5.974;2023-02-01T10:32:13;101528.81;;;12.58;68.95
57562;BME280;43397;51.530;5.974;2023-02-01T10:34:39;101519.06;;;12.54;69.52
57562;BME280;43397;51.530;5.974;2023-02-01T10:37:16;101531.19;;;13.07;68.34
57562;BME280;43397;51.530;5.974;2023-02-01T10:39:45;101544.75;;;12.76;68.43
57562;BME280;43397;51.530;5.974;2023-02-01T10:42:11;101539.94;;;13.26;68.00
57562;BME280;43397;51.530;5.974;2023-02-01T10:44:41;101538.41;;;12.87;68.00
57562;BME280;43397;51.530;5.974;2023-02-01T10:47:08;101524.28;;;12.75;68.13
57562;BME280;43397;51.530;5.974;2023-02-01T10:49:39;101526.88;;;12.86;65.21
57562;BME280;43397;51.530;5.974;2023-02-01T10:52:12;101529.59;;;12.79;67.12
57562;BME280;43397;51.530;5.974;2023-02-01T10:54:39;101520.53;;;13.01;67.21
57562;BME280;43397;51.530;5.974;2023-02-01T10:57:08;101526.13;;;12.66;67.48
57562;BME280;43397;51.530;5.974;2023-02-01T10:59:34;101520.84;;;12.55;65.93
57562;BME280;43397;51.530;5.974;2023-02-01T11:02:01;101515.38;;;12.78;65.10
57562;BME280;43397;51.530;5.974;2023-02-01T11:04:37;101521.38;;;13.09;65.47
57562;BME280;43397;51.530;5.974;2023-02-01T11:07:07;101517.03;;;12.96;63.92
57562;BME280;43397;51.530;5.974;2023-02-01T11:09:39;101512.66;;;12.87;65.16
57562;BME280;43397;51.530;5.974;2023-02-01T11:12:20;101488.72;;;12.76;65.83
57562;BME280;43397;51.530;5.974;2023-02-01T11:14:47;101494.19;;;12.52;64.88
57562;BME280;43397;51.530;5.974;2023-02-01T11:17:23;101488.69;;;12.81;65.62
57562;BME280;43397;51.530;5.974;2023-02-01T11:19:57;101472.88;;;12.55;64.70
57562;BME280;43397;51.530;5.974;2023-02-01T11:22:24;101474.63;;;12.59;65.17
57562;BME280;43397;51.530;5.974;2023-02-01T11:24:50;101479.06;;;12.54;64.43
57562;BME280;43397;51.530;5.974;2023-02-01T11:27:19;101478.84;;;12.86;64.35
57562;BME280;43397;51.530;5.974;2023-02-01T11:29:48;101476.38;;;12.62;63.82
57562;BME280;43397;51.530;5.974;2023-02-01T11:32:17;101479.69;;;12.93;64.79
57562;BME280;43397;51.530;5.974;2023-02-01T11:34:47;101475.66;;;12.35;65.32
57562;BME280;43397;51.530;5.974;2023-02-01T11:37:14;101470.09;;;12.72;65.03
57562;BME280;43397;51.530;5.974;2023-02-01T11:39:42;101467.56;;;12.49;63.99
57562;BME280;43397;51.530;5.974;2023-02-01T11:42:12;101457.75;;;12.57;66.10
57562;BME280;43397;51.530;5.974;2023-02-01T11:44:41;101464.91;;;12.49;64.39
57562;BME280;43397;51.530;5.974;2023-02-01T11:47:25;101446.16;;;12.60;64.84
57562;BME280;43397;51.530;5.974;2023-02-01T11:49:53;101457.56;;;12.82;65.28
57562;BME280;43397;51.530;5.974;2023-02-01T11:52:28;101451.44;;;12.67;64.94
57562;BME280;43397;51.530;5.974;2023-02-01T11:55:17;101467.47;;;12.66;64.19
57562;BME280;43397;51.530;5.974;2023-02-01T11:58:00;101457.59;;;12.75;64.78
57562;BME280;43397;51.530;5.974;2023-02-01T12:00:44;101455.91;;;12.65;64.31
57562;BME280;43397;51.530;5.974;2023-02-01T12:06:15;101428.41;;;12.54;65.17
57562;BME280;43397;51.530;5.974;2023-02-01T12:09:07;101452.28;;;12.74;64.16
57562;BME280;43397;51.530;5.974;2023-02-01T12:11:43;101437.31;;;12.51;64.61
57562;BME280;43397;51.530;5.974;2023-02-01T12:14:24;101429.09;;;12.85;64.57
57562;BME280;43397;51.530;5.974;2023-02-01T12:17:06;101440.63;;;12.86;64.29
57562;BME280;43397;51.530;5.974;2023-02-01T12:19:50;101431.78;;;12.81;64.06
57562;BME280;43397;51.530;5.974;2023-02-01T12:22:33;101421.81;;;13.00;64.75
57562;BME280;43397;51.530;5.974;2023-02-01T12:25:24;101436.34;;;12.66;63.75
57562;BME280;43397;51.530;5.974;2023-02-01T12:31:10;101438.78;;;12.92;64.43
57562;BME280;43397;51.530;5.974;2023-02-01T12:33:51;101434.53;;;12.68;65.03
57562;BME280;43397;51.530;5.974;2023-02-01T12:36:24;101432.72;;;12.76;64.63
57562;BME280;43397;51.530;5.974;2023-02-01T12:38:57;101432.50;;;13.01;64.21
57562;BME280;43397;51.530;5.974;2023-02-01T12:41:47;101436.22;;;12.80;65.38
57562;BME280;43397;51.530;5.974;2023-02-01T12:44:24;101444.28;;;12.74;64.77
57562;BME280;43397;51.530;5.974;2023-02-01T12:46:53;101445.03;;;12.90;63.84
57562;BME280;43397;51.530;5.974;2023-02-01T12:49:23;101430.91;;;12.75;64.99
57562;BME280;43397;51.530;5.974;2023-02-01T12:51:57;101442.38;;;12.90;64.32
57562;BME280;43397;51.530;5.974;2023-02-01T12:54:35;101439.84;;;12.76;64.49
57562;BME280;43397;51.530;5.974;2023-02-01T12:57:06;101417.69;;;12.62;64.78
57562;BME280;43397;51.530;5.974;2023-02-01T12:59:39;101419.38;;;12.73;64.66
57562;BME280;43397;51.530;5.974;2023-02-01T13:02:14;101435.25;;;12.90;64.45
57562;BME280;43397;51.530;5.974;2023-02-01T13:04:52;101435.41;;;12.69;65.42
57562;BME280;43397;51.530;5.974;2023-02-01T13:07:21;101424.53;;;12.96;63.87
57562;BME280;43397;51.530;5.974;2023-02-01T13:09:53;101425.31;;;13.09;63.18
57562;BME280;43397;51.530;5.974;2023-02-01T13:12:26;101430.50;;;13.22;62.77
57562;BME280;43397;51.530;5.974;2023-02-01T13:15:00;101427.75;;;13.34;63.11
57562;BME280;43397;51.530;5.974;2023-02-01T13:17:29;101440.09;;;13.46;62.26